American Falls, ID

1:24 PM MDT on August 27, 2015 (GMT -0600)
The Hood | | Change Station
CLOSE
Current Station
Personal Weather Station
Location: Rockland, ID
Elevation: 4560 ft
Nearby Weather Stations

Elev 4560 ft 42.57 °N, 112.88 °W | Updated 7 minutes ago

Clear
Clear
88.5 °F
Feels Like 86 °F
N
4.7
Wind Variable Wind from SE

Today
High -- | Low -- °F
--% Chance of Precip.
Yesterday
High -- | Low -- °F
Precip. -- in
6:51 AM 8:14 PM
Waxing Gibbous, 94% visible
Pressure 30.10 in
Visibility 10.0 miles
Clouds Few 5500 ft
Heat Index 86 °F
Dew Point 53 °F
Humidity 30%
Rainfall 0.00 in
Snow Depth Not available.
UV 9 out of 12
Pollen 7.90 out of 12
Air Quality Not available.
Flu Activity Not available.
METAR KPIH 271853Z 24007KT 10SM FEW055 28/09 A3023 RMK AO2 RAE49 SLP191 P0000 T02830094
Pressure 30.10 in
Visibility 10.0 miles
Clouds Few 5500 ft
Heat Index 86 °F
Dew Point 53 °F
Humidity 30%
Rainfall 0.00 in
Snow Depth Not available.
UV 9 out of 12
Pollen 7.90 out of 12
Air Quality Not available.
Flu Activity Not available.
METAR KPIH 271853Z 24007KT 10SM FEW055 28/09 A3023 RMK AO2 RAE49 SLP191 P0000 T02830094

10-Day Weather Forecast

×

Almanac

Astronomy

Aug. 27, 2015 Rise Set
Actual Time
Civil Twilight
Nautical Twilight
Astronomical Twilight
Moon
Length of Visible Light
Length of Day
Tomorrow will be .
, % of the Moon is Illuminated

Today's Extremes

State Highs State Lows

Community

WunderPhotos

Upload Photos

1,850,195 photos uploaded!

WunderBlogs® & News

Nearby

Air Quality

  Air Quality AQ Index Pollutant
Not available.

Snow Depth

Station Depth Elevation

Earthquake Activity

City Distance Mag. Time & Date
Minimum magnitude displayed is 2.5.

Coastal Water Temperatures

Place Temperature

Stations

Nearby Weather Stations

Station Location Temp. Windchill Dew Point Humidity Wind Precip. Elev Updated Type